Hovedside
METAR-TAF:

METAR-TAF

Lufthavner :

Bermuda, Bermuda

breddegrad: 32-22N, lengdegrad: 064-41W, høyde over havet: 6 m

Gjeldene værobservasjon

Denne rapporten ble laget for 19 minutter siden, klokken 07:55 UTC
Vind 14 kt fra Sør-sørvest
Temperatur 26°C
Luftfuktighet 84%
Trykk 1020 hPa
Sikt 10 km eller mer
Få skyer i en høyde av 1600 ft

METAR: TXKF 230755Z 20014KT 9999 FEW016 26/23 Q1020

Tid: 05:14 (08:14 UTC)

Varsel

Denne rapporten ble laget for 2 timer og 25 minutter siden, klokken 05:49 UTC
Varsel gyldig fra 23. klokken 06 UTC til 24. klokken 06 UTC
Vind 12 kt fra Sør-sørvest
Sikt 10 km eller mer
Få skyer i en høyde av 1200 ft
Spredte skyer i en høyde av 30000 ft
regnbyger i nærheten
Sannsynlighet 30% :
Midlertidig
fra 23. klokken 06 UTC til 23. klokken 12 UTC
Brutte skyer i en høyde av 1200 ft
lette regnbyger

TAF: TXKF 230549Z 2306/2406 20012KT 9999 VCSH FEW012 SCT300 PROB30 TEMPO 2306/2312 -SHRA BKN012

Værobservasjoner og værvarsel for over 4000 flyplasser (METAR- og TAF-rapporter).

Tilgjengelige stasjoner er representert av de røde og gule prikkene på kartet.

Hold musepekeren over prikken for å se navnet på stasjonen.

Klikk så for å se værobservasjoner og -varsler.

For å forandre kartet kan du klikke på den grønne knappen med svart kryss for å zoome inn, på den grønne knappen med strek for å zoome ut, eller på de grønne pilene for å se tilstøtende kart.


METAR-TAF: